sensor_id;sensor_type;location;lat;lon;timestamp;P1;durP1;ratioP1;P2;durP2;ratioP2
7667;SDS011;3876;42.204;24.686;2022-09-12T00:01:54;0.30;;;0.30;;
7667;SDS011;3876;42.204;24.686;2022-09-12T00:04:22;0.30;;;0.30;;
7667;SDS011;3876;42.204;24.686;2022-09-12T00:06:51;0.40;;;0.40;;
7667;SDS011;3876;42.204;24.686;2022-09-12T00:09:17;0.30;;;0.30;;
7667;SDS011;3876;42.204;24.686;2022-09-12T00:11:45;0.47;;;0.47;;
7667;SDS011;3876;42.204;24.686;2022-09-12T00:14:13;0.30;;;0.30;;
7667;SDS011;3876;42.204;24.686;2022-09-12T00:16:41;0.40;;;0.40;;
7667;SDS011;3876;42.204;24.686;2022-09-12T00:19:08;0.43;;;0.43;;
7667;SDS011;3876;42.204;24.686;2022-09-12T00:21:38;0.30;;;0.30;;
7667;SDS011;3876;42.204;24.686;2022-09-12T00:24:06;0.40;;;0.40;;
7667;SDS011;3876;42.204;24.686;2022-09-12T00:26:33;0.30;;;0.30;;
7667;SDS011;3876;42.204;24.686;2022-09-12T00:28:59;0.40;;;0.40;;
7667;SDS011;3876;42.204;24.686;2022-09-12T00:31:26;0.40;;;0.40;;
7667;SDS011;3876;42.204;24.686;2022-09-12T00:33:54;0.60;;;0.60;;
7667;SDS011;3876;42.204;24.686;2022-09-12T00:36:22;0.47;;;0.47;;
7667;SDS011;3876;42.204;24.686;2022-09-12T00:38:52;0.50;;;0.50;;
7667;SDS011;3876;42.204;24.686;2022-09-12T00:41:20;0.30;;;0.30;;
7667;SDS011;3876;42.204;24.686;2022-09-12T00:43:50;0.40;;;0.40;;
7667;SDS011;3876;42.204;24.686;2022-09-12T00:46:22;0.40;;;0.40;;
7667;SDS011;3876;42.204;24.686;2022-09-12T00:48:56;0.30;;;0.30;;
7667;SDS011;3876;42.204;24.686;2022-09-12T00:51:26;0.30;;;0.30;;
7667;SDS011;3876;42.204;24.686;2022-09-12T00:53:59;0.40;;;0.40;;
7667;SDS011;3876;42.204;24.686;2022-09-12T00:56:31;0.30;;;0.30;;
7667;SDS011;3876;42.204;24.686;2022-09-12T00:58:59;0.40;;;0.40;;
7667;SDS011;3876;42.204;24.686;2022-09-12T01:01:29;0.40;;;0.40;;
7667;SDS011;3876;42.204;24.686;2022-09-12T01:03:57;0.40;;;0.40;;
7667;SDS011;3876;42.204;24.686;2022-09-12T01:06:25;0.30;;;0.30;;
7667;SDS011;3876;42.204;24.686;2022-09-12T01:08:53;0.40;;;0.40;;
7667;SDS011;3876;42.204;24.686;2022-09-12T01:11:23;0.30;;;0.30;;
7667;SDS011;3876;42.204;24.686;2022-09-12T01:13:49;0.30;;;0.30;;
7667;SDS011;3876;42.204;24.686;2022-09-12T01:16:17;0.40;;;0.40;;
7667;SDS011;3876;42.204;24.686;2022-09-12T01:18:47;0.30;;;0.30;;
7667;SDS011;3876;42.204;24.686;2022-09-12T01:21:23;0.30;;;0.30;;
7667;SDS011;3876;42.204;24.686;2022-09-12T01:24:06;0.40;;;0.40;;
7667;SDS011;3876;42.204;24.686;2022-09-12T01:27:14;0.40;;;0.40;;
7667;SDS011;3876;42.204;24.686;2022-09-12T01:30:01;0.50;;;0.50;;
7667;SDS011;3876;42.204;24.686;2022-09-12T01:32:37;0.33;;;0.33;;
7667;SDS011;3876;42.204;24.686;2022-09-12T01:35:13;0.40;;;0.40;;
7667;SDS011;3876;42.204;24.686;2022-09-12T01:37:51;0.37;;;0.37;;
7667;SDS011;3876;42.204;24.686;2022-09-12T01:40:26;0.40;;;0.40;;
7667;SDS011;3876;42.204;24.686;2022-09-12T01:43:01;0.37;;;0.37;;
7667;SDS011;3876;42.204;24.686;2022-09-12T01:45:39;0.50;;;0.50;;
7667;SDS011;3876;42.204;24.686;2022-09-12T01:48:11;0.60;;;0.60;;
7667;SDS011;3876;42.204;24.686;2022-09-12T01:50:45;0.50;;;0.50;;
7667;SDS011;3876;42.204;24.686;2022-09-12T01:53:17;0.57;;;0.57;;
7667;SDS011;3876;42.204;24.686;2022-09-12T01:55:47;0.30;;;0.30;;
7667;SDS011;3876;42.204;24.686;2022-09-12T01:58:20;0.40;;;0.40;;
7667;SDS011;3876;42.204;24.686;2022-09-12T02:00:53;0.40;;;0.40;;
7667;SDS011;3876;42.204;24.686;2022-09-12T02:03:28;0.40;;;0.40;;
7667;SDS011;3876;42.204;24.686;2022-09-12T02:05:59;0.30;;;0.30;;
7667;SDS011;3876;42.204;24.686;2022-09-12T02:08:32;0.47;;;0.47;;
7667;SDS011;3876;42.204;24.686;2022-09-12T02:11:04;0.40;;;0.40;;
7667;SDS011;3876;42.204;24.686;2022-09-12T02:13:34;0.60;;;0.60;;
7667;SDS011;3876;42.204;24.686;2022-09-12T02:16:05;0.37;;;0.37;;
7667;SDS011;3876;42.204;24.686;2022-09-12T02:18:37;0.40;;;0.40;;
7667;SDS011;3876;42.204;24.686;2022-09-12T02:21:07;0.40;;;0.40;;
7667;SDS011;3876;42.204;24.686;2022-09-12T02:23:35;0.40;;;0.40;;
7667;SDS011;3876;42.204;24.686;2022-09-12T02:26:07;0.30;;;0.30;;
7667;SDS011;3876;42.204;24.686;2022-09-12T02:28:41;0.50;;;0.50;;
7667;SDS011;3876;42.204;24.686;2022-09-12T02:31:10;0.30;;;0.30;;
7667;SDS011;3876;42.204;24.686;2022-09-12T02:33:45;0.40;;;0.40;;
7667;SDS011;3876;42.204;24.686;2022-09-12T02:36:20;0.53;;;0.53;;
7667;SDS011;3876;42.204;24.686;2022-09-12T02:38:59;0.43;;;0.43;;
7667;SDS011;3876;42.204;24.686;2022-09-12T02:41:26;0.50;;;0.50;;
7667;SDS011;3876;42.204;24.686;2022-09-12T02:43:53;0.40;;;0.40;;
7667;SDS011;3876;42.204;24.686;2022-09-12T02:46:21;0.50;;;0.50;;
7667;SDS011;3876;42.204;24.686;2022-09-12T02:48:53;0.40;;;0.40;;
7667;SDS011;3876;42.204;24.686;2022-09-12T02:51:21;0.40;;;0.40;;
7667;SDS011;3876;42.204;24.686;2022-09-12T02:53:48;0.40;;;0.40;;
7667;SDS011;3876;42.204;24.686;2022-09-12T02:56:17;0.60;;;0.60;;
7667;SDS011;3876;42.204;24.686;2022-09-12T02:58:48;0.40;;;0.40;;
7667;SDS011;3876;42.204;24.686;2022-09-12T03:01:18;0.40;;;0.40;;
7667;SDS011;3876;42.204;24.686;2022-09-12T03:04:03;0.50;;;0.50;;
7667;SDS011;3876;42.204;24.686;2022-09-12T03:06:48;0.47;;;0.47;;
7667;SDS011;3876;42.204;24.686;2022-09-12T03:09:22;0.50;;;0.50;;
7667;SDS011;3876;42.204;24.686;2022-09-12T03:12:01;0.40;;;0.40;;
7667;SDS011;3876;42.204;24.686;2022-09-12T03:14:41;0.40;;;0.40;;
7667;SDS011;3876;42.204;24.686;2022-09-12T03:17:18;0.40;;;0.40;;
7667;SDS011;3876;42.204;24.686;2022-09-12T03:19:56;0.40;;;0.40;;
7667;SDS011;3876;42.204;24.686;2022-09-12T03:22:29;0.40;;;0.40;;
7667;SDS011;3876;42.204;24.686;2022-09-12T03:25:03;0.40;;;0.40;;
7667;SDS011;3876;42.204;24.686;2022-09-12T03:27:37;0.30;;;0.30;;
7667;SDS011;3876;42.204;24.686;2022-09-12T03:30:08;0.40;;;0.40;;
7667;SDS011;3876;42.204;24.686;2022-09-12T03:32:40;0.40;;;0.40;;
7667;SDS011;3876;42.204;24.686;2022-09-12T03:35:09;0.40;;;0.40;;
7667;SDS011;3876;42.204;24.686;2022-09-12T03:37:37;0.40;;;0.40;;
7667;SDS011;3876;42.204;24.686;2022-09-12T03:40:04;0.60;;;0.60;;
7667;SDS011;3876;42.204;24.686;2022-09-12T03:42:32;0.50;;;0.50;;
7667;SDS011;3876;42.204;24.686;2022-09-12T03:44:59;0.43;;;0.43;;
7667;SDS011;3876;42.204;24.686;2022-09-12T03:47:26;0.50;;;0.50;;
7667;SDS011;3876;42.204;24.686;2022-09-12T03:49:52;0.30;;;0.30;;
7667;SDS011;3876;42.204;24.686;2022-09-12T03:52:21;0.50;;;0.50;;
7667;SDS011;3876;42.204;24.686;2022-09-12T03:54:48;0.50;;;0.50;;
7667;SDS011;3876;42.204;24.686;2022-09-12T03:57:14;0.50;;;0.50;;
7667;SDS011;3876;42.204;24.686;2022-09-12T03:59:41;0.37;;;0.37;;
7667;SDS011;3876;42.204;24.686;2022-09-12T04:02:08;0.50;;;0.50;;
7667;SDS011;3876;42.204;24.686;2022-09-12T04:04:37;0.63;;;0.63;;
7667;SDS011;3876;42.204;24.686;2022-09-12T04:07:06;0.40;;;0.40;;
7667;SDS011;3876;42.204;24.686;2022-09-12T04:09:34;0.53;;;0.53;;
7667;SDS011;3876;42.204;24.686;2022-09-12T04:12:01;0.47;;;0.47;;
7667;SDS011;3876;42.204;24.686;2022-09-12T04:14:29;0.50;;;0.50;;
7667;SDS011;3876;42.204;24.686;2022-09-12T04:16:56;0.47;;;0.47;;
7667;SDS011;3876;42.204;24.686;2022-09-12T04:19:24;0.30;;;0.30;;
7667;SDS011;3876;42.204;24.686;2022-09-12T04:21:50;0.60;;;0.60;;
7667;SDS011;3876;42.204;24.686;2022-09-12T04:24:17;0.50;;;0.50;;
7667;SDS011;3876;42.204;24.686;2022-09-12T04:26:46;0.50;;;0.50;;
7667;SDS011;3876;42.204;24.686;2022-09-12T04:29:12;0.50;;;0.50;;
7667;SDS011;3876;42.204;24.686;2022-09-12T04:31:40;0.40;;;0.40;;
7667;SDS011;3876;42.204;24.686;2022-09-12T04:34:07;0.50;;;0.50;;
7667;SDS011;3876;42.204;24.686;2022-09-12T04:36:34;0.40;;;0.40;;
7667;SDS011;3876;42.204;24.686;2022-09-12T04:39:02;0.57;;;0.57;;
7667;SDS011;3876;42.204;24.686;2022-09-12T04:41:30;0.30;;;0.30;;
7667;SDS011;3876;42.204;24.686;2022-09-12T04:44:00;0.50;;;0.50;;
7667;SDS011;3876;42.204;24.686;2022-09-12T04:46:29;0.63;;;0.63;;
7667;SDS011;3876;42.204;24.686;2022-09-12T04:48:56;0.50;;;0.50;;
7667;SDS011;3876;42.204;24.686;2022-09-12T04:51:25;0.60;;;0.60;;
7667;SDS011;3876;42.204;24.686;2022-09-12T04:53:54;0.40;;;0.40;;
7667;SDS011;3876;42.204;24.686;2022-09-12T04:56:22;0.40;;;0.40;;
7667;SDS011;3876;42.204;24.686;2022-09-12T04:58:49;0.40;;;0.40;;
7667;SDS011;3876;42.204;24.686;2022-09-12T05:01:18;0.33;;;0.33;;
7667;SDS011;3876;42.204;24.686;2022-09-12T05:03:47;0.50;;;0.50;;
7667;SDS011;3876;42.204;24.686;2022-09-12T05:06:15;0.40;;;0.40;;
7667;SDS011;3876;42.204;24.686;2022-09-12T05:08:44;0.40;;;0.40;;
7667;SDS011;3876;42.204;24.686;2022-09-12T05:11:12;0.30;;;0.30;;
7667;SDS011;3876;42.204;24.686;2022-09-12T05:13:40;0.50;;;0.50;;
7667;SDS011;3876;42.204;24.686;2022-09-12T05:16:09;0.50;;;0.50;;
7667;SDS011;3876;42.204;24.686;2022-09-12T05:18:38;0.40;;;0.40;;
7667;SDS011;3876;42.204;24.686;2022-09-12T05:21:05;0.40;;;0.40;;
7667;SDS011;3876;42.204;24.686;2022-09-12T05:23:33;0.40;;;0.40;;
7667;SDS011;3876;42.204;24.686;2022-09-12T05:26:01;0.40;;;0.40;;
7667;SDS011;3876;42.204;24.686;2022-09-12T05:28:29;0.40;;;0.40;;
7667;SDS011;3876;42.204;24.686;2022-09-12T05:31:01;0.30;;;0.30;;
7667;SDS011;3876;42.204;24.686;2022-09-12T05:33:29;0.33;;;0.33;;
7667;SDS011;3876;42.204;24.686;2022-09-12T05:36:00;0.40;;;0.40;;
7667;SDS011;3876;42.204;24.686;2022-09-12T05:38:28;0.40;;;0.40;;
7667;SDS011;3876;42.204;24.686;2022-09-12T05:41:01;0.30;;;0.30;;
7667;SDS011;3876;42.204;24.686;2022-09-12T05:43:30;0.30;;;0.30;;
7667;SDS011;3876;42.204;24.686;2022-09-12T05:45:59;0.40;;;0.40;;
7667;SDS011;3876;42.204;24.686;2022-09-12T05:48:27;0.40;;;0.40;;
7667;SDS011;3876;42.204;24.686;2022-09-12T05:50:57;0.30;;;0.30;;
7667;SDS011;3876;42.204;24.686;2022-09-12T05:53:27;0.40;;;0.40;;
7667;SDS011;3876;42.204;24.686;2022-09-12T05:56:02;0.40;;;0.40;;
7667;SDS011;3876;42.204;24.686;2022-09-12T05:58:30;0.30;;;0.30;;
7667;SDS011;3876;42.204;24.686;2022-09-12T06:01:00;0.30;;;0.30;;
7667;SDS011;3876;42.204;24.686;2022-09-12T06:03:28;0.40;;;0.40;;
7667;SDS011;3876;42.204;24.686;2022-09-12T06:05:54;0.40;;;0.40;;
7667;SDS011;3876;42.204;24.686;2022-09-12T06:08:23;0.30;;;0.30;;
7667;SDS011;3876;42.204;24.686;2022-09-12T06:10:49;0.30;;;0.30;;
7667;SDS011;3876;42.204;24.686;2022-09-12T06:13:16;0.30;;;0.30;;
7667;SDS011;3876;42.204;24.686;2022-09-12T06:15:43;0.23;;;0.23;;
7667;SDS011;3876;42.204;24.686;2022-09-12T06:18:10;0.40;;;0.40;;
7667;SDS011;3876;42.204;24.686;2022-09-12T06:20:37;0.30;;;0.30;;
7667;SDS011;3876;42.204;24.686;2022-09-12T06:23:04;0.37;;;0.37;;
7667;SDS011;3876;42.204;24.686;2022-09-12T06:25:32;0.50;;;0.50;;
7667;SDS011;3876;42.204;24.686;2022-09-12T06:27:58;0.30;;;0.30;;
7667;SDS011;3876;42.204;24.686;2022-09-12T06:30:25;0.30;;;0.30;;
7667;SDS011;3876;42.204;24.686;2022-09-12T06:32:52;0.40;;;0.40;;
7667;SDS011;3876;42.204;24.686;2022-09-12T06:35:20;0.30;;;0.30;;
7667;SDS011;3876;42.204;24.686;2022-09-12T06:37:47;0.20;;;0.20;;
7667;SDS011;3876;42.204;24.686;2022-09-12T06:40:14;0.30;;;0.30;;
7667;SDS011;3876;42.204;24.686;2022-09-12T06:42:42;0.20;;;0.20;;
7667;SDS011;3876;42.204;24.686;2022-09-12T06:45:09;0.27;;;0.27;;
7667;SDS011;3876;42.204;24.686;2022-09-12T06:47:36;0.30;;;0.30;;
7667;SDS011;3876;42.204;24.686;2022-09-12T06:50:03;0.20;;;0.20;;
7667;SDS011;3876;42.204;24.686;2022-09-12T06:52:31;0.30;;;0.30;;
7667;SDS011;3876;42.204;24.686;2022-09-12T06:54:57;0.30;;;0.30;;
7667;SDS011;3876;42.204;24.686;2022-09-12T06:57:24;0.20;;;0.20;;
7667;SDS011;3876;42.204;24.686;2022-09-12T06:59:55;0.30;;;0.30;;
7667;SDS011;3876;42.204;24.686;2022-09-12T07:02:22;0.30;;;0.30;;
7667;SDS011;3876;42.204;24.686;2022-09-12T07:04:49;0.20;;;0.20;;
7667;SDS011;3876;42.204;24.686;2022-09-12T07:07:16;0.30;;;0.30;;
7667;SDS011;3876;42.204;24.686;2022-09-12T07:09:43;0.30;;;0.30;;
7667;SDS011;3876;42.204;24.686;2022-09-12T07:12:10;0.40;;;0.40;;
7667;SDS011;3876;42.204;24.686;2022-09-12T07:14:37;0.27;;;0.27;;
7667;SDS011;3876;42.204;24.686;2022-09-12T07:17:05;0.30;;;0.30;;
7667;SDS011;3876;42.204;24.686;2022-09-12T07:19:32;0.20;;;0.20;;
7667;SDS011;3876;42.204;24.686;2022-09-12T07:21:59;0.20;;;0.20;;
7667;SDS011;3876;42.204;24.686;2022-09-12T07:24:26;0.20;;;0.20;;
7667;SDS011;3876;42.204;24.686;2022-09-12T07:26:53;0.30;;;0.30;;
7667;SDS011;3876;42.204;24.686;2022-09-12T07:29:20;0.20;;;0.20;;
7667;SDS011;3876;42.204;24.686;2022-09-12T07:31:46;0.20;;;0.20;;
7667;SDS011;3876;42.204;24.686;2022-09-12T07:34:15;0.20;;;0.20;;
7667;SDS011;3876;42.204;24.686;2022-09-12T07:36:41;0.20;;;0.20;;
7667;SDS011;3876;42.204;24.686;2022-09-12T07:39:08;0.20;;;0.20;;
7667;SDS011;3876;42.204;24.686;2022-09-12T07:41:36;0.20;;;0.20;;
7667;SDS011;3876;42.204;24.686;2022-09-12T07:44:03;0.20;;;0.20;;
7667;SDS011;3876;42.204;24.686;2022-09-12T07:46:31;0.20;;;0.20;;
7667;SDS011;3876;42.204;24.686;2022-09-12T07:48:59;0.30;;;0.30;;
7667;SDS011;3876;42.204;24.686;2022-09-12T07:51:28;0.20;;;0.20;;
7667;SDS011;3876;42.204;24.686;2022-09-12T07:53:56;0.20;;;0.20;;
7667;SDS011;3876;42.204;24.686;2022-09-12T07:56:23;0.30;;;0.30;;
7667;SDS011;3876;42.204;24.686;2022-09-12T07:58:51;1.07;;;0.80;;
7667;SDS011;3876;42.204;24.686;2022-09-12T08:01:18;0.20;;;0.20;;
7667;SDS011;3876;42.204;24.686;2022-09-12T08:03:48;0.20;;;0.20;;
7667;SDS011;3876;42.204;24.686;2022-09-12T08:06:16;0.30;;;0.30;;
7667;SDS011;3876;42.204;24.686;2022-09-12T08:08:46;0.20;;;0.20;;
7667;SDS011;3876;42.204;24.686;2022-09-12T08:11:15;0.20;;;0.20;;
7667;SDS011;3876;42.204;24.686;2022-09-12T08:13:44;0.20;;;0.20;;
7667;SDS011;3876;42.204;24.686;2022-09-12T08:16:12;0.30;;;0.30;;
7667;SDS011;3876;42.204;24.686;2022-09-12T08:18:40;0.20;;;0.20;;
7667;SDS011;3876;42.204;24.686;2022-09-12T08:21:09;0.20;;;0.20;;
7667;SDS011;3876;42.204;24.686;2022-09-12T08:23:39;0.23;;;0.23;;
7667;SDS011;3876;42.204;24.686;2022-09-12T08:26:11;0.23;;;0.23;;
7667;SDS011;3876;42.204;24.686;2022-09-12T08:28:38;0.20;;;0.20;;
7667;SDS011;3876;42.204;24.686;2022-09-12T08:31:10;0.23;;;0.23;;
7667;SDS011;3876;42.204;24.686;2022-09-12T08:33:38;0.20;;;0.20;;
7667;SDS011;3876;42.204;24.686;2022-09-12T08:36:05;0.20;;;0.20;;
7667;SDS011;3876;42.204;24.686;2022-09-12T08:38:34;0.20;;;0.20;;
7667;SDS011;3876;42.204;24.686;2022-09-12T08:41:03;0.20;;;0.20;;
7667;SDS011;3876;42.204;24.686;2022-09-12T08:46:38;0.20;;;0.20;;
7667;SDS011;3876;42.204;24.686;2022-09-12T08:49:11;0.20;;;0.20;;
7667;SDS011;3876;42.204;24.686;2022-09-12T08:51:47;0.20;;;0.20;;
7667;SDS011;3876;42.204;24.686;2022-09-12T08:54:18;0.30;;;0.30;;
7667;SDS011;3876;42.204;24.686;2022-09-12T08:56:49;0.30;;;0.30;;
7667;SDS011;3876;42.204;24.686;2022-09-12T08:59:22;0.10;;;0.10;;
7667;SDS011;3876;42.204;24.686;2022-09-12T09:01:50;0.20;;;0.20;;
7667;SDS011;3876;42.204;24.686;2022-09-12T09:04:35;0.20;;;0.20;;
7667;SDS011;3876;42.204;24.686;2022-09-12T09:07:15;0.20;;;0.20;;
7667;SDS011;3876;42.204;24.686;2022-09-12T09:09:59;0.30;;;0.30;;
7667;SDS011;3876;42.204;24.686;2022-09-12T09:12:35;0.20;;;0.20;;
7667;SDS011;3876;42.204;24.686;2022-09-12T09:18:17;0.20;;;0.20;;
7667;SDS011;3876;42.204;24.686;2022-09-12T09:20:48;0.20;;;0.20;;
7667;SDS011;3876;42.204;24.686;2022-09-12T09:23:21;0.20;;;0.20;;
7667;SDS011;3876;42.204;24.686;2022-09-12T09:25:53;0.20;;;0.20;;
7667;SDS011;3876;42.204;24.686;2022-09-12T09:28:28;0.20;;;0.20;;
7667;SDS011;3876;42.204;24.686;2022-09-12T09:31:01;0.20;;;0.20;;
7667;SDS011;3876;42.204;24.686;2022-09-12T09:33:29;0.20;;;0.20;;
7667;SDS011;3876;42.204;24.686;2022-09-12T09:36:01;0.20;;;0.20;;
7667;SDS011;3876;42.204;24.686;2022-09-12T09:38:40;0.20;;;0.20;;
7667;SDS011;3876;42.204;24.686;2022-09-12T09:41:22;0.20;;;0.20;;
7667;SDS011;3876;42.204;24.686;2022-09-12T09:44:01;0.20;;;0.20;;
7667;SDS011;3876;42.204;24.686;2022-09-12T09:46:30;0.20;;;0.20;;
7667;SDS011;3876;42.204;24.686;2022-09-12T09:48:57;0.20;;;0.20;;
7667;SDS011;3876;42.204;24.686;2022-09-12T09:51:28;0.20;;;0.20;;
7667;SDS011;3876;42.204;24.686;2022-09-12T09:54:00;0.10;;;0.10;;
7667;SDS011;3876;42.204;24.686;2022-09-12T09:56:31;0.20;;;0.20;;
7667;SDS011;3876;42.204;24.686;2022-09-12T09:59:09;0.20;;;0.20;;
7667;SDS011;3876;42.204;24.686;2022-09-12T10:01:43;0.10;;;0.10;;
7667;SDS011;3876;42.204;24.686;2022-09-12T10:04:18;0.20;;;0.20;;
7667;SDS011;3876;42.204;24.686;2022-09-12T10:06:49;0.20;;;0.20;;
7667;SDS011;3876;42.204;24.686;2022-09-12T10:09:19;0.40;;;0.40;;
7667;SDS011;3876;42.204;24.686;2022-09-12T10:11:48;0.20;;;0.20;;
7667;SDS011;3876;42.204;24.686;2022-09-12T10:14:27;0.20;;;0.20;;
7667;SDS011;3876;42.204;24.686;2022-09-12T10:16:57;0.10;;;0.10;;
7667;SDS011;3876;42.204;24.686;2022-09-12T10:19:32;0.13;;;0.13;;
7667;SDS011;3876;42.204;24.686;2022-09-12T10:22:00;0.20;;;0.20;;
7667;SDS011;3876;42.204;24.686;2022-09-12T10:24:29;0.20;;;0.20;;
7667;SDS011;3876;42.204;24.686;2022-09-12T10:27:05;0.10;;;0.10;;
7667;SDS011;3876;42.204;24.686;2022-09-12T10:29:37;0.20;;;0.20;;
7667;SDS011;3876;42.204;24.686;2022-09-12T10:32:09;0.20;;;0.20;;
7667;SDS011;3876;42.204;24.686;2022-09-12T10:34:40;0.20;;;0.20;;
7667;SDS011;3876;42.204;24.686;2022-09-12T10:37:09;0.10;;;0.10;;
7667;SDS011;3876;42.204;24.686;2022-09-12T10:39:48;0.20;;;0.20;;
7667;SDS011;3876;42.204;24.686;2022-09-12T10:45:17;0.20;;;0.20;;
7667;SDS011;3876;42.204;24.686;2022-09-12T10:47:47;0.20;;;0.20;;
7667;SDS011;3876;42.204;24.686;2022-09-12T10:50:18;0.10;;;0.10;;
7667;SDS011;3876;42.204;24.686;2022-09-12T10:52:51;0.20;;;0.20;;
7667;SDS011;3876;42.204;24.686;2022-09-12T10:55:19;0.10;;;0.10;;
7667;SDS011;3876;42.204;24.686;2022-09-12T10:57:58;0.20;;;0.20;;
7667;SDS011;3876;42.204;24.686;2022-09-12T11:00:36;0.20;;;0.20;;
7667;SDS011;3876;42.204;24.686;2022-09-12T11:03:15;0.20;;;0.20;;
7667;SDS011;3876;42.204;24.686;2022-09-12T11:05:52;0.20;;;0.20;;
7667;SDS011;3876;42.204;24.686;2022-09-12T11:08:29;0.20;;;0.20;;
7667;SDS011;3876;42.204;24.686;2022-09-12T11:11:07;0.20;;;0.20;;
7667;SDS011;3876;42.204;24.686;2022-09-12T11:13:56;0.20;;;0.20;;
7667;SDS011;3876;42.204;24.686;2022-09-12T11:16:32;0.17;;;0.17;;
7667;SDS011;3876;42.204;24.686;2022-09-12T11:27:58;0.20;;;0.20;;
7667;SDS011;3876;42.204;24.686;2022-09-12T11:30:44;0.20;;;0.20;;
7667;SDS011;3876;42.204;24.686;2022-09-12T11:33:31;0.20;;;0.20;;
7667;SDS011;3876;42.204;24.686;2022-09-12T11:36:09;0.20;;;0.20;;
7667;SDS011;3876;42.204;24.686;2022-09-12T11:38:49;0.20;;;0.20;;
7667;SDS011;3876;42.204;24.686;2022-09-12T11:41:23;0.20;;;0.20;;
7667;SDS011;3876;42.204;24.686;2022-09-12T11:43:54;0.20;;;0.20;;
7667;SDS011;3876;42.204;24.686;2022-09-12T11:46:28;0.20;;;0.20;;
7667;SDS011;3876;42.204;24.686;2022-09-12T11:49:01;0.20;;;0.20;;
7667;SDS011;3876;42.204;24.686;2022-09-12T11:51:34;0.20;;;0.20;;
7667;SDS011;3876;42.204;24.686;2022-09-12T11:54:11;0.20;;;0.20;;
7667;SDS011;3876;42.204;24.686;2022-09-12T11:56:45;0.20;;;0.20;;
7667;SDS011;3876;42.204;24.686;2022-09-12T11:59:17;0.10;;;0.10;;
7667;SDS011;3876;42.204;24.686;2022-09-12T12:01:52;0.30;;;0.30;;
7667;SDS011;3876;42.204;24.686;2022-09-12T12:04:24;0.20;;;0.20;;
7667;SDS011;3876;42.204;24.686;2022-09-12T12:07:02;0.20;;;0.20;;
7667;SDS011;3876;42.204;24.686;2022-09-12T12:09:31;0.20;;;0.20;;
7667;SDS011;3876;42.204;24.686;2022-09-12T12:11:59;0.20;;;0.20;;
7667;SDS011;3876;42.204;24.686;2022-09-12T12:14:32;0.27;;;0.27;;
7667;SDS011;3876;42.204;24.686;2022-09-12T12:17:11;0.20;;;0.20;;
7667;SDS011;3876;42.204;24.686;2022-09-12T12:19:40;0.20;;;0.20;;
7667;SDS011;3876;42.204;24.686;2022-09-12T12:22:16;0.20;;;0.20;;
7667;SDS011;3876;42.204;24.686;2022-09-12T12:25:05;0.23;;;0.23;;
7667;SDS011;3876;42.204;24.686;2022-09-12T12:27:50;0.20;;;0.20;;
7667;SDS011;3876;42.204;24.686;2022-09-12T12:36:36;0.20;;;0.20;;
7667;SDS011;3876;42.204;24.686;2022-09-12T12:48:30;0.20;;;0.20;;
7667;SDS011;3876;42.204;24.686;2022-09-12T12:51:15;0.20;;;0.20;;
7667;SDS011;3876;42.204;24.686;2022-09-12T12:53:55;0.23;;;0.23;;
7667;SDS011;3876;42.204;24.686;2022-09-12T12:56:26;0.20;;;0.20;;
7667;SDS011;3876;42.204;24.686;2022-09-12T12:59:00;0.20;;;0.20;;
7667;SDS011;3876;42.204;24.686;2022-09-12T13:01:30;0.30;;;0.30;;
7667;SDS011;3876;42.204;24.686;2022-09-12T13:04:04;0.20;;;0.20;;
7667;SDS011;3876;42.204;24.686;2022-09-12T13:06:39;0.10;;;0.10;;
7667;SDS011;3876;42.204;24.686;2022-09-12T13:09:16;0.20;;;0.20;;
7667;SDS011;3876;42.204;24.686;2022-09-12T13:11:53;0.20;;;0.20;;
7667;SDS011;3876;42.204;24.686;2022-09-12T13:14:34;0.20;;;0.20;;
7667;SDS011;3876;42.204;24.686;2022-09-12T13:17:17;0.30;;;0.30;;
7667;SDS011;3876;42.204;24.686;2022-09-12T13:19:50;0.20;;;0.20;;
7667;SDS011;3876;42.204;24.686;2022-09-12T13:22:21;0.20;;;0.20;;
7667;SDS011;3876;42.204;24.686;2022-09-12T13:24:49;0.20;;;0.20;;
7667;SDS011;3876;42.204;24.686;2022-09-12T13:27:18;0.10;;;0.10;;
7667;SDS011;3876;42.204;24.686;2022-09-12T13:29:48;0.20;;;0.20;;
7667;SDS011;3876;42.204;24.686;2022-09-12T13:32:15;0.30;;;0.30;;
7667;SDS011;3876;42.204;24.686;2022-09-12T13:34:50;0.30;;;0.30;;
7667;SDS011;3876;42.204;24.686;2022-09-12T13:37:37;0.27;;;0.27;;
7667;SDS011;3876;42.204;24.686;2022-09-12T13:40:21;0.20;;;0.20;;
7667;SDS011;3876;42.204;24.686;2022-09-12T13:43:06;0.10;;;0.10;;
7667;SDS011;3876;42.204;24.686;2022-09-12T13:45:40;0.20;;;0.20;;
7667;SDS011;3876;42.204;24.686;2022-09-12T13:48:10;0.23;;;0.23;;
7667;SDS011;3876;42.204;24.686;2022-09-12T13:50:42;0.30;;;0.30;;
7667;SDS011;3876;42.204;24.686;2022-09-12T13:53:16;0.20;;;0.20;;
7667;SDS011;3876;42.204;24.686;2022-09-12T13:55:48;0.20;;;0.20;;
7667;SDS011;3876;42.204;24.686;2022-09-12T13:58:19;0.20;;;0.20;;
7667;SDS011;3876;42.204;24.686;2022-09-12T14:01:00;0.30;;;0.30;;
7667;SDS011;3876;42.204;24.686;2022-09-12T14:03:29;0.20;;;0.20;;
7667;SDS011;3876;42.204;24.686;2022-09-12T14:06:15;0.30;;;0.30;;
7667;SDS011;3876;42.204;24.686;2022-09-12T14:08:43;0.20;;;0.20;;
7667;SDS011;3876;42.204;24.686;2022-09-12T14:11:11;0.20;;;0.20;;
7667;SDS011;3876;42.204;24.686;2022-09-12T14:13:48;0.10;;;0.10;;
7667;SDS011;3876;42.204;24.686;2022-09-12T14:16:18;0.20;;;0.20;;
7667;SDS011;3876;42.204;24.686;2022-09-12T14:18:47;0.20;;;0.20;;
7667;SDS011;3876;42.204;24.686;2022-09-12T14:21:19;0.20;;;0.20;;
7667;SDS011;3876;42.204;24.686;2022-09-12T14:23:58;0.20;;;0.20;;
7667;SDS011;3876;42.204;24.686;2022-09-12T14:26:26;0.20;;;0.20;;
7667;SDS011;3876;42.204;24.686;2022-09-12T14:28:56;0.30;;;0.30;;
7667;SDS011;3876;42.204;24.686;2022-09-12T14:31:27;0.20;;;0.20;;
7667;SDS011;3876;42.204;24.686;2022-09-12T14:34:06;0.20;;;0.20;;
7667;SDS011;3876;42.204;24.686;2022-09-12T14:36:35;0.20;;;0.20;;
7667;SDS011;3876;42.204;24.686;2022-09-12T14:39:06;0.20;;;0.20;;
7667;SDS011;3876;42.204;24.686;2022-09-12T14:41:43;0.30;;;0.30;;
7667;SDS011;3876;42.204;24.686;2022-09-12T14:44:14;0.20;;;0.20;;
7667;SDS011;3876;42.204;24.686;2022-09-12T14:46:46;0.30;;;0.30;;
7667;SDS011;3876;42.204;24.686;2022-09-12T14:49:14;0.17;;;0.17;;
7667;SDS011;3876;42.204;24.686;2022-09-12T14:51:47;0.20;;;0.20;;
7667;SDS011;3876;42.204;24.686;2022-09-12T14:57:05;0.30;;;0.30;;
7667;SDS011;3876;42.204;24.686;2022-09-12T14:59:52;0.30;;;0.30;;
7667;SDS011;3876;42.204;24.686;2022-09-12T15:02:25;0.30;;;0.30;;
7667;SDS011;3876;42.204;24.686;2022-09-12T15:04:52;0.20;;;0.20;;
7667;SDS011;3876;42.204;24.686;2022-09-12T15:07:25;0.20;;;0.20;;
7667;SDS011;3876;42.204;24.686;2022-09-12T15:09:57;0.33;;;0.33;;
7667;SDS011;3876;42.204;24.686;2022-09-12T15:12:25;0.30;;;0.30;;
7667;SDS011;3876;42.204;24.686;2022-09-12T15:14:52;0.40;;;0.40;;
7667;SDS011;3876;42.204;24.686;2022-09-12T15:17:25;0.20;;;0.20;;
7667;SDS011;3876;42.204;24.686;2022-09-12T15:19:51;0.30;;;0.30;;
7667;SDS011;3876;42.204;24.686;2022-09-12T15:22:20;0.30;;;0.30;;
7667;SDS011;3876;42.204;24.686;2022-09-12T15:24:50;0.30;;;0.30;;
7667;SDS011;3876;42.204;24.686;2022-09-12T15:27:17;0.27;;;0.27;;
7667;SDS011;3876;42.204;24.686;2022-09-12T15:29:44;0.30;;;0.30;;
7667;SDS011;3876;42.204;24.686;2022-09-12T15:32:13;0.30;;;0.30;;
7667;SDS011;3876;42.204;24.686;2022-09-12T15:34:49;0.40;;;0.40;;
7667;SDS011;3876;42.204;24.686;2022-09-12T15:37:17;0.40;;;0.40;;
7667;SDS011;3876;42.204;24.686;2022-09-12T15:39:45;0.30;;;0.30;;
7667;SDS011;3876;42.204;24.686;2022-09-12T15:42:12;0.20;;;0.20;;
7667;SDS011;3876;42.204;24.686;2022-09-12T15:44:40;0.30;;;0.30;;
7667;SDS011;3876;42.204;24.686;2022-09-12T15:47:07;0.30;;;0.30;;
7667;SDS011;3876;42.204;24.686;2022-09-12T15:49:37;0.27;;;0.27;;
7667;SDS011;3876;42.204;24.686;2022-09-12T15:52:05;0.30;;;0.30;;
7667;SDS011;3876;42.204;24.686;2022-09-12T15:54:32;0.20;;;0.20;;
7667;SDS011;3876;42.204;24.686;2022-09-12T15:57:00;0.30;;;0.30;;
7667;SDS011;3876;42.204;24.686;2022-09-12T15:59:27;0.20;;;0.20;;
7667;SDS011;3876;42.204;24.686;2022-09-12T16:01:55;0.30;;;0.30;;